Time;durP1;ratioP1;P1;durP2;ratioP2;P2;SDS_P1;SDS_P2;PMS_P1;PMS_P2;Temp;Humidity;BMP_temperature;BMP_pressure;BME280_temperature;BME280_humidity;BME280_pressure;Samples;Min_cycle;Max_cycle;Signal;HPM_P1;HPM_P2
2023/07/28 00:01:31;;;;;;;2.97;1.50;;;;;;;;;;5060889;28;20228;-63
2023/07/28 00:03:58;;;;;;;3.47;1.57;;;;;;;;;;5061041;28;20208;-65
2023/07/28 00:06:26;;;;;;;4.43;1.50;;;;;;;;;;5060643;28;20220;-65
2023/07/28 00:08:54;;;;;;;4.57;1.63;;;;;;;;;;5060938;28;20242;-65
2023/07/28 00:11:22;;;;;;;1.60;1.30;;;;;;;;;;5060635;28;20240;-63
2023/07/28 00:13:51;;;;;;;3.17;1.20;;;;;;;;;;5061136;28;20765;-65
2023/07/28 00:16:19;;;;;;;2.27;1.40;;;;;;;;;;5060814;28;20295;-64
2023/07/28 00:18:47;;;;;;;5.97;1.67;;;;;;;;;;5060821;28;20216;-65
2023/07/28 00:21:14;;;;;;;4.33;1.60;;;;;;;;;;5060437;28;20235;-65
2023/07/28 00:23:42;;;;;;;5.67;1.60;;;;;;;;;;5060408;28;20209;-64
2023/07/28 00:26:10;;;;;;;7.07;1.80;;;;;;;;;;5060071;28;20206;-64
2023/07/28 00:28:38;;;;;;;7.03;1.60;;;;;;;;;;5060644;28;20639;-64
2023/07/28 00:31:07;;;;;;;1.53;1.43;;;;;;;;;;5060399;28;20227;-63
2023/07/28 00:33:35;;;;;;;2.10;1.50;;;;;;;;;;5060517;28;20271;-63
2023/07/28 00:36:03;;;;;;;4.17;1.37;;;;;;;;;;5060246;28;20267;-65
2023/07/28 00:38:31;;;;;;;3.90;1.40;;;;;;;;;;5060346;28;20586;-65
2023/07/28 00:40:58;;;;;;;2.50;1.83;;;;;;;;;;5059745;28;20681;-64
2023/07/28 00:43:26;;;;;;;4.10;1.40;;;;;;;;;;5060425;28;20291;-65
2023/07/28 00:45:54;;;;;;;2.23;1.43;;;;;;;;;;5060411;28;20209;-64
2023/07/28 00:48:25;;;;;;;4.27;1.47;;;;;;;;;;5060085;28;20647;-64
2023/07/28 00:50:54;;;;;;;1.70;1.60;;;;;;;;;;5060131;28;20233;-64
2023/07/28 00:53:23;;;;;;;3.97;2.00;;;;;;;;;;5059883;28;20218;-64
2023/07/28 00:55:51;;;;;;;3.33;1.60;;;;;;;;;;5059371;28;20642;-64
2023/07/28 00:58:19;;;;;;;1.97;1.73;;;;;;;;;;5060198;28;20301;-64
2023/07/28 01:00:47;;;;;;;1.90;1.50;;;;;;;;;;5059605;28;20675;-64
2023/07/28 01:03:15;;;;;;;4.47;1.80;;;;;;;;;;5059660;28;20296;-64
2023/07/28 01:05:48;;;;;;;2.73;1.50;;;;;;;;;;5059179;28;20218;-64
2023/07/28 01:08:21;;;;;;;2.63;1.70;;;;;;;;;;5059522;28;20592;-64
2023/07/28 01:10:48;;;;;;;4.63;1.50;;;;;;;;;;5059822;28;20238;-65
2023/07/28 01:13:16;;;;;;;8.70;2.47;;;;;;;;;;5059708;28;20219;-65
2023/07/28 01:15:44;;;;;;;4.83;1.40;;;;;;;;;;5059381;28;20241;-65
2023/07/28 01:18:12;;;;;;;4.73;1.97;;;;;;;;;;5059393;28;20671;-64
2023/07/28 01:20:40;;;;;;;4.20;2.00;;;;;;;;;;5059686;28;20233;-64
2023/07/28 01:23:17;;;;;;;3.90;1.77;;;;;;;;;;5059311;28;20210;-64
2023/07/28 01:25:49;;;;;;;2.60;1.80;;;;;;;;;;5059335;28;20620;-63
2023/07/28 01:28:18;;;;;;;3.20;1.83;;;;;;;;;;5059287;28;20212;-64
2023/07/28 01:30:46;;;;;;;3.87;1.77;;;;;;;;;;5059347;28;20229;-63
2023/07/28 01:33:14;;;;;;;5.77;1.80;;;;;;;;;;5059140;28;20289;-64
2023/07/28 01:35:41;;;;;;;4.00;2.10;;;;;;;;;;5059024;28;20586;-64
2023/07/28 01:38:09;;;;;;;5.00;2.30;;;;;;;;;;5058948;28;20675;-64
2023/07/28 01:40:37;;;;;;;3.07;1.90;;;;;;;;;;5058790;28;20229;-63
2023/07/28 01:43:05;;;;;;;4.50;1.97;;;;;;;;;;5058975;28;20219;-63
2023/07/28 01:45:34;;;;;;;1.70;1.60;;;;;;;;;;5058853;28;20204;-64
2023/07/28 01:48:02;;;;;;;4.97;1.80;;;;;;;;;;5059125;28;20213;-64
2023/07/28 01:50:30;;;;;;;2.77;1.77;;;;;;;;;;5058899;28;20271;-65
2023/07/28 01:52:57;;;;;;;2.87;1.80;;;;;;;;;;5058946;28;20223;-64
2023/07/28 01:55:25;;;;;;;6.83;2.20;;;;;;;;;;5058229;28;20308;-65
2023/07/28 01:57:55;;;;;;;2.87;1.70;;;;;;;;;;5058640;28;20548;-65
2023/07/28 02:00:23;;;;;;;3.10;1.97;;;;;;;;;;5058677;28;20313;-63
2023/07/28 02:02:52;;;;;;;3.40;2.30;;;;;;;;;;5058564;28;20727;-64
2023/07/28 02:05:20;;;;;;;6.23;2.23;;;;;;;;;;5058767;28;20205;-64
2023/07/28 02:07:48;;;;;;;6.23;2.30;;;;;;;;;;5058664;28;20214;-65
2023/07/28 02:10:16;;;;;;;4.60;2.37;;;;;;;;;;5058345;28;20697;-65
2023/07/28 02:12:44;;;;;;;3.27;2.30;;;;;;;;;;5058590;28;20209;-65
2023/07/28 02:15:12;;;;;;;7.23;2.63;;;;;;;;;;5058561;28;20315;-65
2023/07/28 02:17:40;;;;;;;6.13;2.50;;;;;;;;;;5057722;28;20209;-65
2023/07/28 02:20:12;;;;;;;4.00;2.67;;;;;;;;;;5058499;28;20291;-65
2023/07/28 02:22:40;;;;;;;4.57;2.70;;;;;;;;;;5058341;28;20243;-65
2023/07/28 02:25:08;;;;;;;2.67;2.03;;;;;;;;;;5058207;28;20240;-65
2023/07/28 02:27:36;;;;;;;5.33;2.20;;;;;;;;;;5058268;28;20208;-65
2023/07/28 02:30:04;;;;;;;4.90;2.17;;;;;;;;;;5058070;28;20233;-65
2023/07/28 02:32:32;;;;;;;4.30;2.23;;;;;;;;;;5057975;28;20226;-64
2023/07/28 02:35:00;;;;;;;5.63;2.30;;;;;;;;;;5058195;28;20209;-65
2023/07/28 02:37:29;;;;;;;5.30;2.33;;;;;;;;;;5058123;28;20204;-65
2023/07/28 02:39:57;;;;;;;4.60;1.87;;;;;;;;;;5057580;28;20229;-64
2023/07/28 02:42:25;;;;;;;3.50;2.13;;;;;;;;;;5058160;28;20217;-65
2023/07/28 02:44:52;;;;;;;6.97;2.33;;;;;;;;;;5058115;28;20219;-64
2023/07/28 02:47:20;;;;;;;3.57;1.97;;;;;;;;;;5057820;28;20284;-64
2023/07/28 02:49:48;;;;;;;7.30;2.17;;;;;;;;;;5057970;28;20315;-64
2023/07/28 02:52:16;;;;;;;4.20;1.87;;;;;;;;;;5057839;28;20216;-63
2023/07/28 02:54:45;;;;;;;5.90;2.10;;;;;;;;;;5057499;28;20311;-65
2023/07/28 02:57:13;;;;;;;8.47;2.50;;;;;;;;;;5057566;28;20237;-65
2023/07/28 02:59:40;;;;;;;4.20;1.93;;;;;;;;;;5057693;28;20216;-64
2023/07/28 03:02:08;;;;;;;2.23;2.03;;;;;;;;;;5057862;28;20207;-65
2023/07/28 03:04:36;;;;;;;7.43;2.70;;;;;;;;;;5057917;28;20208;-64
2023/07/28 03:07:04;;;;;;;11.80;2.47;;;;;;;;;;5057452;28;20243;-64
2023/07/28 03:09:31;;;;;;;4.93;2.23;;;;;;;;;;5057734;28;20681;-65
2023/07/28 03:12:01;;;;;;;3.77;2.37;;;;;;;;;;5057744;28;20575;-64
2023/07/28 03:14:29;;;;;;;4.80;2.10;;;;;;;;;;5057759;28;20208;-64
2023/07/28 03:16:57;;;;;;;6.87;2.20;;;;;;;;;;5057435;28;20255;-64
2023/07/28 03:19:24;;;;;;;4.53;2.00;;;;;;;;;;5057679;28;20565;-64
2023/07/28 03:21:52;;;;;;;6.53;1.90;;;;;;;;;;5057599;28;20234;-64
2023/07/28 03:24:20;;;;;;;6.63;2.40;;;;;;;;;;5057670;28;20212;-64
2023/07/28 03:26:48;;;;;;;5.80;2.10;;;;;;;;;;5057204;28;20204;-64
2023/07/28 03:29:18;;;;;;;4.57;2.20;;;;;;;;;;5060209;28;20214;-64
2023/07/28 03:31:46;;;;;;;4.17;2.77;;;;;;;;;;5061603;28;20315;-64
2023/07/28 03:34:14;;;;;;;6.43;2.37;;;;;;;;;;5061618;28;20211;-64
2023/07/28 03:36:41;;;;;;;5.70;2.37;;;;;;;;;;5061433;28;20230;-65
2023/07/28 03:39:09;;;;;;;6.93;2.23;;;;;;;;;;5061260;28;20644;-63
2023/07/28 03:41:37;;;;;;;3.37;2.07;;;;;;;;;;5060932;28;20228;-65
2023/07/28 03:44:05;;;;;;;2.60;2.07;;;;;;;;;;5061175;28;20625;-65
2023/07/28 03:46:34;;;;;;;7.10;2.63;;;;;;;;;;5061136;28;20208;-65
2023/07/28 03:49:02;;;;;;;5.53;2.50;;;;;;;;;;5061392;28;20253;-65
2023/07/28 03:51:30;;;;;;;3.70;2.33;;;;;;;;;;5061153;28;20348;-65
2023/07/28 03:53:58;;;;;;;4.70;2.73;;;;;;;;;;5060855;28;20295;-65
2023/07/28 03:56:25;;;;;;;4.77;2.50;;;;;;;;;;5060968;28;20325;-65
2023/07/28 03:58:54;;;;;;;5.27;2.23;;;;;;;;;;5060782;28;20274;-65
2023/07/28 04:01:22;;;;;;;2.87;2.17;;;;;;;;;;5060881;28;20612;-65
2023/07/28 04:03:51;;;;;;;8.13;2.43;;;;;;;;;;5060918;28;20694;-65
2023/07/28 04:06:18;;;;;;;5.87;2.37;;;;;;;;;;5061058;28;20654;-63
2023/07/28 04:08:46;;;;;;;4.43;2.17;;;;;;;;;;5060680;28;20563;-65
2023/07/28 04:11:14;;;;;;;5.03;2.40;;;;;;;;;;5060373;28;20227;-65
2023/07/28 04:13:42;;;;;;;4.20;2.13;;;;;;;;;;5060904;28;20235;-64
2023/07/28 04:16:10;;;;;;;4.63;2.30;;;;;;;;;;5060730;28;20228;-65
2023/07/28 04:18:37;;;;;;;6.00;2.63;;;;;;;;;;5060824;28;20212;-65
2023/07/28 04:21:08;;;;;;;6.67;2.60;;;;;;;;;;5060606;28;20284;-65
2023/07/28 04:23:35;;;;;;;5.20;2.20;;;;;;;;;;5060755;28;20212;-64
2023/07/28 04:26:03;;;;;;;6.77;2.97;;;;;;;;;;5060357;28;20640;-64
2023/07/28 04:28:31;;;;;;;3.53;2.13;;;;;;;;;;5060672;28;20207;-63
2023/07/28 04:30:59;;;;;;;3.47;2.37;;;;;;;;;;5060403;28;20291;-65
2023/07/28 04:33:27;;;;;;;4.00;2.67;;;;;;;;;;5060610;28;20223;-65
2023/07/28 04:35:54;;;;;;;5.60;2.43;;;;;;;;;;5060122;28;20216;-65
2023/07/28 04:38:23;;;;;;;5.43;2.50;;;;;;;;;;5060164;28;20227;-65
2023/07/28 04:40:52;;;;;;;4.77;2.73;;;;;;;;;;5059126;28;20310;-65
2023/07/28 04:43:19;;;;;;;4.40;2.30;;;;;;;;;;5060376;28;20246;-65
2023/07/28 04:45:47;;;;;;;4.63;2.80;;;;;;;;;;5060282;28;20272;-65
2023/07/28 04:48:15;;;;;;;6.53;2.83;;;;;;;;;;5060059;28;20231;-65
2023/07/28 04:50:43;;;;;;;3.30;2.33;;;;;;;;;;5059805;28;20632;-65
2023/07/28 04:53:11;;;;;;;6.93;2.47;;;;;;;;;;5059813;28;20570;-65
2023/07/28 04:55:40;;;;;;;4.07;2.13;;;;;;;;;;5059373;28;20234;-65
2023/07/28 04:58:08;;;;;;;5.33;2.60;;;;;;;;;;5059774;28;20231;-65
2023/07/28 05:00:35;;;;;;;10.53;2.83;;;;;;;;;;5059495;28;20288;-65
2023/07/28 05:03:03;;;;;;;4.10;2.33;;;;;;;;;;5060130;28;20237;-65
2023/07/28 05:05:31;;;;;;;6.03;2.50;;;;;;;;;;5060102;28;20294;-65
2023/07/28 05:07:59;;;;;;;4.53;2.23;;;;;;;;;;5059695;28;20217;-65
2023/07/28 05:10:26;;;;;;;3.57;2.47;;;;;;;;;;5059522;28;20265;-65
2023/07/28 05:12:56;;;;;;;5.73;2.63;;;;;;;;;;5059779;28;20211;-65
2023/07/28 05:15:23;;;;;;;3.13;2.40;;;;;;;;;;5059813;28;20215;-65
2023/07/28 05:17:51;;;;;;;4.60;2.50;;;;;;;;;;5059504;28;20571;-65
2023/07/28 05:20:19;;;;;;;4.77;2.60;;;;;;;;;;5059383;28;20254;-64
2023/07/28 05:22:47;;;;;;;4.03;2.70;;;;;;;;;;5059272;28;20211;-64
2023/07/28 05:25:14;;;;;;;5.07;2.37;;;;;;;;;;5059280;28;20289;-64
2023/07/28 05:27:42;;;;;;;4.23;2.50;;;;;;;;;;5059379;28;20203;-64
2023/07/28 05:30:11;;;;;;;4.93;2.63;;;;;;;;;;5059533;28;20234;-65
2023/07/28 05:32:39;;;;;;;8.53;2.40;;;;;;;;;;5056473;28;20670;-65
2023/07/28 05:35:07;;;;;;;7.57;2.57;;;;;;;;;;5059435;28;20231;-65
2023/07/28 05:37:35;;;;;;;6.13;2.67;;;;;;;;;;5058811;28;20225;-65
2023/07/28 05:40:03;;;;;;;7.03;2.93;;;;;;;;;;5058619;28;20228;-63
2023/07/28 05:42:31;;;;;;;10.27;2.60;;;;;;;;;;5059145;28;20664;-64
2023/07/28 05:45:00;;;;;;;6.43;2.40;;;;;;;;;;5058989;28;20242;-64
2023/07/28 05:47:29;;;;;;;5.13;2.57;;;;;;;;;;5059104;28;20290;-64
2023/07/28 05:49:57;;;;;;;4.57;2.67;;;;;;;;;;5058992;28;20224;-64
2023/07/28 05:52:24;;;;;;;8.13;2.50;;;;;;;;;;5058552;28;20575;-65
2023/07/28 05:54:52;;;;;;;6.63;2.40;;;;;;;;;;5058350;28;20235;-63
2023/07/28 05:57:20;;;;;;;5.97;2.77;;;;;;;;;;5058875;28;20319;-64
2023/07/28 05:59:48;;;;;;;4.90;3.07;;;;;;;;;;5058586;28;20272;-64
2023/07/28 06:02:16;;;;;;;7.60;2.93;;;;;;;;;;5058859;28;20209;-64
2023/07/28 06:04:45;;;;;;;4.20;2.30;;;;;;;;;;5058469;28;20711;-63
2023/07/28 06:07:14;;;;;;;3.83;2.40;;;;;;;;;;5058705;28;20201;-64
2023/07/28 06:09:41;;;;;;;3.93;2.97;;;;;;;;;;5058321;28;20207;-64
2023/07/28 06:12:10;;;;;;;5.77;2.40;;;;;;;;;;5058700;28;20206;-64
2023/07/28 06:14:39;;;;;;;10.53;3.20;;;;;;;;;;5058636;28;20247;-64
2023/07/28 06:17:07;;;;;;;5.03;3.00;;;;;;;;;;5058290;28;20622;-64
2023/07/28 06:19:34;;;;;;;5.93;2.90;;;;;;;;;;5058170;28;20577;-64
2023/07/28 06:22:04;;;;;;;8.67;2.90;;;;;;;;;;5058430;28;20210;-64
2023/07/28 06:24:32;;;;;;;5.83;2.67;;;;;;;;;;5058358;28;20215;-64
2023/07/28 06:27:00;;;;;;;4.83;3.03;;;;;;;;;;5058501;28;20214;-64
2023/07/28 06:29:27;;;;;;;4.50;2.70;;;;;;;;;;5058362;28;20214;-64
2023/07/28 06:31:56;;;;;;;5.23;2.53;;;;;;;;;;5057983;28;20236;-64
2023/07/28 06:34:23;;;;;;;8.10;2.97;;;;;;;;;;5057947;28;20210;-64
2023/07/28 06:36:52;;;;;;;3.93;2.33;;;;;;;;;;5057990;28;20200;-64
2023/07/28 06:39:21;;;;;;;7.47;3.00;;;;;;;;;;5057784;28;20760;-65
2023/07/28 06:41:48;;;;;;;3.37;2.90;;;;;;;;;;5057896;28;20696;-65
2023/07/28 06:44:17;;;;;;;7.57;2.70;;;;;;;;;;5058137;28;20223;-65
2023/07/28 06:46:45;;;;;;;4.67;2.50;;;;;;;;;;5058166;28;20234;-65
2023/07/28 06:49:12;;;;;;;6.23;2.63;;;;;;;;;;5057904;28;20201;-65
2023/07/28 06:51:40;;;;;;;8.43;2.77;;;;;;;;;;5057678;28;20225;-65
2023/07/28 06:54:12;;;;;;;8.07;2.77;;;;;;;;;;5057618;28;20333;-65
2023/07/28 06:56:41;;;;;;;3.97;2.57;;;;;;;;;;5057541;28;20580;-65
2023/07/28 06:59:09;;;;;;;8.10;3.20;;;;;;;;;;5057719;28;20313;-65
2023/07/28 07:01:46;;;;;;;4.40;2.73;;;;;;;;;;5057622;28;20229;-65
2023/07/28 07:04:14;;;;;;;4.73;2.70;;;;;;;;;;5057527;28;20211;-65
2023/07/28 07:06:41;;;;;;;5.35;2.67;;;;;;;;;;5057464;28;20219;-65
2023/07/28 07:09:09;;;;;;;5.97;2.90;;;;;;;;;;5057954;28;20199;-65
2023/07/28 07:11:37;;;;;;;5.63;2.70;;;;;;;;;;5057166;28;20736;-65
2023/07/28 07:14:07;;;;;;;7.03;2.78;;;;;;;;;;5057744;28;20208;-65
2023/07/28 07:16:35;;;;;;;5.13;3.27;;;;;;;;;;5057696;28;20215;-65
2023/07/28 07:19:03;;;;;;;7.93;2.83;;;;;;;;;;5057732;28;20706;-65
2023/07/28 07:21:32;;;;;;;19.47;4.90;;;;;;;;;;5057352;28;20231;-65
2023/07/28 07:24:00;;;;;;;14.13;4.50;;;;;;;;;;5057484;28;20204;-65
2023/07/28 07:26:28;;;;;;;6.10;2.80;;;;;;;;;;5057199;28;20324;-65
2023/07/28 07:28:57;;;;;;;6.78;2.75;;;;;;;;;;5057541;28;20210;-65
2023/07/28 07:31:26;;;;;;;5.07;3.30;;;;;;;;;;5057193;28;20222;-65
2023/07/28 07:33:54;;;;;;;4.78;2.97;;;;;;;;;;5057594;28;20214;-65
2023/07/28 07:36:21;;;;;;;4.93;2.95;;;;;;;;;;5057267;28;20217;-65
2023/07/28 07:38:49;;;;;;;6.32;2.67;;;;;;;;;;5057280;28;20234;-65
2023/07/28 07:41:19;;;;;;;2.60;2.38;;;;;;;;;;5057000;28;20229;-65
2023/07/28 07:43:57;;;;;;;5.03;2.33;;;;;;;;;;5057192;28;20225;-65
2023/07/28 07:46:26;;;;;;;4.05;2.97;;;;;;;;;;5057266;28;20202;-65
2023/07/28 07:48:54;;;;;;;8.85;3.08;;;;;;;;;;5057357;28;20222;-65
2023/07/28 07:51:22;;;;;;;4.50;2.67;;;;;;;;;;5057227;28;20712;-65
2023/07/28 07:53:49;;;;;;;37.20;9.98;;;;;;;;;;5057216;28;20214;-65
2023/07/28 07:56:17;;;;;;;10.95;3.70;;;;;;;;;;5056971;28;20296;-65
2023/07/28 07:58:45;;;;;;;4.90;2.75;;;;;;;;;;5057311;28;20230;-65
2023/07/28 08:01:13;;;;;;;3.45;2.33;;;;;;;;;;5057386;28;20262;-65
2023/07/28 08:03:42;;;;;;;4.28;2.58;;;;;;;;;;5057292;28;20202;-65
2023/07/28 08:06:11;;;;;;;3.88;2.60;;;;;;;;;;5057086;28;20618;-65
2023/07/28 08:08:39;;;;;;;6.85;2.80;;;;;;;;;;5057311;28;20206;-65
2023/07/28 08:11:10;;;;;;;2.78;2.40;;;;;;;;;;5057019;28;20233;-65
2023/07/28 08:13:38;;;;;;;3.60;2.30;;;;;;;;;;5057015;28;20293;-65
2023/07/28 08:16:06;;;;;;;3.08;2.35;;;;;;;;;;5059252;28;20244;-65
2023/07/28 08:18:34;;;;;;;4.45;2.33;;;;;;;;;;5060795;28;20233;-65
2023/07/28 08:21:03;;;;;;;3.97;2.65;;;;;;;;;;5060331;28;20606;-65
2023/07/28 08:23:30;;;;;;;2.50;2.30;;;;;;;;;;5060874;28;20211;-65
2023/07/28 08:25:58;;;;;;;5.10;2.58;;;;;;;;;;5060444;28;20693;-65
2023/07/28 08:28:26;;;;;;;6.40;2.88;;;;;;;;;;5060712;28;20214;-65
2023/07/28 08:30:56;;;;;;;2.75;2.45;;;;;;;;;;5060163;28;20234;-65
2023/07/28 08:33:23;;;;;;;5.22;3.03;;;;;;;;;;5060661;28;20214;-65
2023/07/28 08:35:51;;;;;;;6.60;2.53;;;;;;;;;;5060215;28;20625;-65
2023/07/28 08:38:20;;;;;;;4.97;2.38;;;;;;;;;;5060142;28;20576;-65
2023/07/28 08:40:48;;;;;;;5.22;2.38;;;;;;;;;;5060061;28;20223;-65
2023/07/28 08:43:16;;;;;;;3.85;2.15;;;;;;;;;;5060431;28;20216;-65
2023/07/28 08:45:44;;;;;;;3.50;2.58;;;;;;;;;;5060314;28;20207;-65
2023/07/28 08:48:12;;;;;;;8.20;2.85;;;;;;;;;;5060007;28;20228;-65
2023/07/28 08:50:40;;;;;;;5.43;2.78;;;;;;;;;;5060086;28;20254;-65
2023/07/28 08:53:08;;;;;;;5.85;3.15;;;;;;;;;;5059690;28;20297;-65
2023/07/28 08:55:37;;;;;;;2.60;2.28;;;;;;;;;;5059553;28;20234;-65
2023/07/28 08:58:15;;;;;;;3.83;2.50;;;;;;;;;;5060089;28;20210;-65
2023/07/28 09:00:43;;;;;;;5.05;2.55;;;;;;;;;;5059763;28;20241;-65
2023/07/28 09:03:12;;;;;;;3.25;2.30;;;;;;;;;;5059953;28;20234;-65
2023/07/28 09:05:40;;;;;;;2.95;2.65;;;;;;;;;;5059985;28;20214;-65
2023/07/28 09:08:09;;;;;;;4.05;2.40;;;;;;;;;;5059777;28;20297;-65
2023/07/28 09:10:44;;;;;;;2.97;2.40;;;;;;;;;;5059593;28;20305;-65
2023/07/28 09:13:13;;;;;;;3.03;2.10;;;;;;;;;;5059847;28;20287;-65
2023/07/28 09:15:44;;;;;;;2.10;1.83;;;;;;;;;;5059534;28;20264;-65
2023/07/28 09:18:13;;;;;;;3.00;2.45;;;;;;;;;;5059730;28;20289;-65
2023/07/28 09:20:42;;;;;;;3.78;2.45;;;;;;;;;;5059646;28;20682;-65
2023/07/28 09:23:10;;;;;;;3.22;2.63;;;;;;;;;;5059570;28;20273;-65
2023/07/28 09:25:38;;;;;;;3.42;2.47;;;;;;;;;;5059080;28;20210;-65
2023/07/28 09:28:07;;;;;;;3.67;2.53;;;;;;;;;;5059444;28;20260;-65
2023/07/28 09:30:46;;;;;;;3.75;2.50;;;;;;;;;;5059382;28;20226;-65
2023/07/28 09:33:13;;;;;;;2.70;2.50;;;;;;;;;;5059497;28;20211;-65
2023/07/28 09:35:48;;;;;;;3.47;2.25;;;;;;;;;;5059381;28;20662;-65
2023/07/28 09:38:16;;;;;;;2.65;2.45;;;;;;;;;;5059272;28;20668;-65
2023/07/28 09:40:44;;;;;;;3.65;2.58;;;;;;;;;;5058789;28;20696;-65
2023/07/28 09:43:14;;;;;;;2.60;2.40;;;;;;;;;;5059227;28;20681;-65
2023/07/28 09:45:43;;;;;;;3.08;2.65;;;;;;;;;;5058909;28;20280;-65
2023/07/28 09:48:11;;;;;;;2.70;2.10;;;;;;;;;;5059142;28;20220;-65
2023/07/28 09:50:41;;;;;;;2.78;2.58;;;;;;;;;;5059046;28;20689;-65
2023/07/28 09:53:09;;;;;;;2.95;2.17;;;;;;;;;;5058983;28;20211;-65
2023/07/28 09:55:42;;;;;;;4.10;2.45;;;;;;;;;;5058403;28;20261;-65
2023/07/28 09:58:10;;;;;;;4.78;2.50;;;;;;;;;;5058787;28;20202;-65
2023/07/28 10:00:39;;;;;;;3.42;2.33;;;;;;;;;;5058418;28;20768;-65
2023/07/28 10:03:10;;;;;;;2.35;2.10;;;;;;;;;;5058806;28;20221;-65
2023/07/28 10:05:38;;;;;;;3.55;2.42;;;;;;;;;;5058505;28;20550;-65
2023/07/28 10:08:06;;;;;;;4.85;2.50;;;;;;;;;;5058315;28;20216;-65
2023/07/28 10:10:34;;;;;;;6.28;2.08;;;;;;;;;;5058216;28;20313;-65
2023/07/28 10:13:03;;;;;;;3.92;2.30;;;;;;;;;;5058492;28;20661;-65
2023/07/28 10:15:31;;;;;;;2.85;2.60;;;;;;;;;;5058727;28;20211;-65
2023/07/28 10:18:01;;;;;;;2.75;2.30;;;;;;;;;;5058526;28;20210;-65
2023/07/28 10:20:35;;;;;;;2.78;1.98;;;;;;;;;;5058075;28;20235;-65
2023/07/28 10:23:03;;;;;;;4.38;2.50;;;;;;;;;;5058186;28;20207;-66
2023/07/28 10:25:33;;;;;;;3.65;2.60;;;;;;;;;;5058189;28;20296;-65
2023/07/28 10:28:02;;;;;;;4.60;2.42;;;;;;;;;;5058393;28;20305;-65
2023/07/28 10:30:30;;;;;;;4.55;2.53;;;;;;;;;;5058148;28;20219;-65
2023/07/28 10:32:57;;;;;;;3.22;2.10;;;;;;;;;;5058271;28;20214;-65
2023/07/28 10:35:29;;;;;;;2.85;2.30;;;;;;;;;;5058194;28;20207;-65
2023/07/28 10:37:57;;;;;;;5.10;2.53;;;;;;;;;;5057182;28;20297;-64
2023/07/28 10:40:29;;;;;;;5.22;2.92;;;;;;;;;;5057655;28;20244;-65
2023/07/28 10:42:57;;;;;;;4.10;2.47;;;;;;;;;;5058152;28;20206;-65
2023/07/28 10:45:26;;;;;;;2.75;2.30;;;;;;;;;;5057820;28;20324;-65
2023/07/28 10:47:55;;;;;;;2.58;2.38;;;;;;;;;;5057914;28;20720;-65
2023/07/28 10:50:24;;;;;;;3.30;2.08;;;;;;;;;;5057858;28;20218;-65
2023/07/28 10:52:53;;;;;;;4.05;2.13;;;;;;;;;;5057913;28;20261;-65
2023/07/28 10:55:23;;;;;;;2.28;2.08;;;;;;;;;;5057378;28;20296;-64
2023/07/28 10:57:52;;;;;;;2.58;2.35;;;;;;;;;;5058209;28;20206;-66
2023/07/28 11:00:22;;;;;;;2.65;2.38;;;;;;;;;;5057381;28;20230;-65
2023/07/28 11:02:50;;;;;;;2.28;2.08;;;;;;;;;;5057906;28;20293;-66
2023/07/28 11:05:21;;;;;;;4.80;2.42;;;;;;;;;;5057797;28;20210;-65
2023/07/28 11:07:49;;;;;;;7.25;3.17;;;;;;;;;;5057753;28;20233;-64
2023/07/28 11:10:20;;;;;;;5.00;3.15;;;;;;;;;;5057441;28;20230;-64
2023/07/28 11:12:48;;;;;;;4.70;2.35;;;;;;;;;;5057564;28;20260;-65
2023/07/28 11:15:17;;;;;;;2.67;2.47;;;;;;;;;;5058027;28;20246;-65
2023/07/28 11:17:46;;;;;;;3.20;2.90;;;;;;;;;;5057917;28;20211;-65
2023/07/28 11:20:17;;;;;;;3.55;2.45;;;;;;;;;;5057625;28;20241;-65
2023/07/28 11:22:46;;;;;;;4.22;2.97;;;;;;;;;;5057267;28;20572;-65
2023/07/28 11:25:14;;;;;;;2.15;1.98;;;;;;;;;;5057205;28;20240;-64
2023/07/28 11:27:44;;;;;;;2.47;2.28;;;;;;;;;;5057668;28;20266;-65
2023/07/28 11:30:12;;;;;;;3.30;2.35;;;;;;;;;;5057449;28;20252;-65
2023/07/28 11:32:43;;;;;;;5.15;3.05;;;;;;;;;;5054662;28;20666;-63
2023/07/28 11:35:11;;;;;;;2.80;2.13;;;;;;;;;;5057302;28;20214;-64
2023/07/28 11:37:40;;;;;;;2.65;2.33;;;;;;;;;;5057481;28;20261;-64
2023/07/28 11:40:10;;;;;;;2.58;2.38;;;;;;;;;;5056805;28;20233;-64
2023/07/28 11:42:39;;;;;;;2.40;2.20;;;;;;;;;;5057499;28;20268;-63
2023/07/28 11:45:11;;;;;;;2.20;2.00;;;;;;;;;;5057548;28;20213;-64
2023/07/28 11:47:39;;;;;;;4.35;2.47;;;;;;;;;;5057972;28;20203;-63
2023/07/28 11:50:07;;;;;;;2.55;2.10;;;;;;;;;;5059797;28;20273;-64
2023/07/28 11:52:36;;;;;;;2.47;2.28;;;;;;;;;;5061094;28;20666;-64
2023/07/28 11:55:05;;;;;;;2.13;1.92;;;;;;;;;;5060671;28;20246;-63
2023/07/28 11:57:33;;;;;;;2.60;2.40;;;;;;;;;;5061278;28;20206;-65
2023/07/28 12:00:02;;;;;;;2.28;2.00;;;;;;;;;;5061000;28;20230;-65
2023/07/28 12:02:33;;;;;;;2.78;2.40;;;;;;;;;;5061194;28;20233;-64
2023/07/28 12:05:02;;;;;;;2.60;2.40;;;;;;;;;;5061042;28;20249;-63
2023/07/28 12:07:35;;;;;;;2.95;2.40;;;;;;;;;;5060953;28;20248;-63
2023/07/28 12:10:06;;;;;;;2.42;2.20;;;;;;;;;;5060434;28;20313;-64
2023/07/28 12:12:41;;;;;;;2.67;2.03;;;;;;;;;;5060748;28;20207;-64
2023/07/28 12:15:22;;;;;;;2.78;2.00;;;;;;;;;;5060878;28;20210;-64
2023/07/28 12:18:08;;;;;;;3.88;2.20;;;;;;;;;;5061001;28;20206;-64
2023/07/28 12:20:39;;;;;;;2.75;1.90;;;;;;;;;;5061011;28;20242;-64
2023/07/28 12:23:07;;;;;;;3.13;2.00;;;;;;;;;;5060636;28;20207;-64
2023/07/28 12:25:38;;;;;;;2.50;2.30;;;;;;;;;;5060282;28;20210;-65
2023/07/28 12:28:06;;;;;;;3.42;2.17;;;;;;;;;;5060614;28;20206;-64
2023/07/28 12:30:48;;;;;;;2.78;2.25;;;;;;;;;;5060450;28;20222;-64
2023/07/28 12:33:18;;;;;;;4.00;2.33;;;;;;;;;;5060261;28;20565;-64
2023/07/28 12:35:49;;;;;;;5.60;2.22;;;;;;;;;;5060133;28;20210;-64
2023/07/28 12:38:18;;;;;;;2.90;2.25;;;;;;;;;;5060098;28;20269;-64
2023/07/28 12:40:49;;;;;;;3.72;2.55;;;;;;;;;;5060007;28;20230;-64
2023/07/28 12:43:19;;;;;;;2.75;2.20;;;;;;;;;;5060489;28;20211;-64
2023/07/28 12:45:50;;;;;;;4.25;2.30;;;;;;;;;;5060067;28;20214;-64
2023/07/28 12:48:22;;;;;;;3.30;2.28;;;;;;;;;;5060160;28;20584;-65
2023/07/28 12:50:50;;;;;;;2.83;2.22;;;;;;;;;;5060110;28;20219;-63
2023/07/28 12:53:30;;;;;;;3.22;2.20;;;;;;;;;;5059945;28;20214;-63
2023/07/28 12:55:58;;;;;;;3.13;2.50;;;;;;;;;;5059443;28;20231;-65
2023/07/28 12:58:28;;;;;;;3.38;3.08;;;;;;;;;;5060003;28;20207;-64
2023/07/28 13:01:01;;;;;;;2.60;2.40;;;;;;;;;;5059216;28;20246;-64
2023/07/28 13:03:31;;;;;;;3.10;2.55;;;;;;;;;;5059729;28;20650;-65
2023/07/28 13:05:59;;;;;;;2.40;2.20;;;;;;;;;;5059882;28;20234;-65
2023/07/28 13:08:27;;;;;;;3.25;2.33;;;;;;;;;;5059871;28;20238;-65
2023/07/28 13:10:58;;;;;;;2.22;2.03;;;;;;;;;;5059600;28;20231;-64
2023/07/28 13:13:30;;;;;;;2.40;2.20;;;;;;;;;;5059642;28;20211;-65
2023/07/28 13:15:58;;;;;;;2.78;2.58;;;;;;;;;;5059851;28;20210;-65
2023/07/28 13:18:25;;;;;;;2.50;2.28;;;;;;;;;;5059488;28;20570;-63
2023/07/28 13:20:55;;;;;;;4.93;2.60;;;;;;;;;;5059827;28;20786;-64
2023/07/28 13:23:22;;;;;;;2.88;2.50;;;;;;;;;;5059581;28;20211;-65
2023/07/28 13:25:50;;;;;;;2.25;2.15;;;;;;;;;;5059245;28;20297;-65
2023/07/28 13:28:19;;;;;;;2.55;2.30;;;;;;;;;;5059994;28;20206;-65
2023/07/28 13:30:46;;;;;;;2.47;2.28;;;;;;;;;;5059308;28;20254;-65
2023/07/28 13:33:14;;;;;;;2.67;2.13;;;;;;;;;;5059463;28;20206;-65
2023/07/28 13:35:42;;;;;;;2.58;2.20;;;;;;;;;;5059413;28;20218;-64
2023/07/28 13:38:11;;;;;;;4.45;2.50;;;;;;;;;;5059287;28;20202;-64
2023/07/28 13:40:39;;;;;;;2.40;2.20;;;;;;;;;;5058891;28;20689;-64
2023/07/28 13:43:07;;;;;;;3.22;2.50;;;;;;;;;;5059227;28;20245;-63
2023/07/28 13:45:35;;;;;;;2.65;2.28;;;;;;;;;;5059135;28;20217;-63
2023/07/28 13:48:03;;;;;;;4.18;2.30;;;;;;;;;;5059205;28;20202;-63
2023/07/28 13:50:31;;;;;;;2.30;2.10;;;;;;;;;;5058980;28;20230;-65
2023/07/28 13:53:01;;;;;;;3.47;2.45;;;;;;;;;;5058788;28;20211;-65
2023/07/28 13:55:51;;;;;;;3.05;2.45;;;;;;;;;;5058415;28;20241;-65
2023/07/28 13:58:21;;;;;;;2.75;2.30;;;;;;;;;;5059046;28;20216;-64
2023/07/28 14:00:49;;;;;;;4.43;2.28;;;;;;;;;;5058791;28;20226;-65
2023/07/28 14:03:17;;;;;;;3.25;2.92;;;;;;;;;;5058818;28;20237;-64
2023/07/28 14:05:46;;;;;;;2.55;2.35;;;;;;;;;;5058846;28;20210;-64
2023/07/28 14:08:14;;;;;;;4.85;2.53;;;;;;;;;;5058621;28;20241;-65
2023/07/28 14:10:44;;;;;;;4.10;3.00;;;;;;;;;;5058815;28;20261;-64
2023/07/28 14:13:13;;;;;;;8.23;3.00;;;;;;;;;;5057899;28;20211;-65
2023/07/28 14:15:42;;;;;;;3.33;2.17;;;;;;;;;;5058499;28;20207;-65
2023/07/28 14:18:10;;;;;;;4.03;2.78;;;;;;;;;;5058656;28;20663;-64
2023/07/28 14:20:38;;;;;;;4.18;2.78;;;;;;;;;;5058311;28;20295;-65
2023/07/28 14:23:21;;;;;;;2.80;2.60;;;;;;;;;;5058517;28;20265;-65
2023/07/28 14:25:49;;;;;;;6.38;2.65;;;;;;;;;;5058211;28;20312;-65
2023/07/28 14:28:18;;;;;;;4.68;2.83;;;;;;;;;;5045169;28;20255;-65
2023/07/28 14:30:47;;;;;;;2.90;2.55;;;;;;;;;;5058182;28;20248;-64
2023/07/28 14:33:15;;;;;;;3.60;2.92;;;;;;;;;;5058461;28;20254;-65
2023/07/28 14:35:43;;;;;;;5.15;3.47;;;;;;;;;;5058008;28;20208;-64
2023/07/28 14:38:11;;;;;;;5.53;3.88;;;;;;;;;;5058317;28;20212;-64
2023/07/28 14:40:40;;;;;;;3.10;2.70;;;;;;;;;;5057587;28;20222;-65
2023/07/28 14:43:08;;;;;;;3.25;2.95;;;;;;;;;;5058243;28;20232;-64
2023/07/28 14:45:37;;;;;;;5.05;2.80;;;;;;;;;;5057890;28;20216;-65
2023/07/28 14:48:05;;;;;;;4.22;2.97;;;;;;;;;;5058306;28;20206;-65
2023/07/28 14:50:33;;;;;;;3.13;2.80;;;;;;;;;;5057771;28;20586;-65
2023/07/28 14:53:01;;;;;;;4.10;2.83;;;;;;;;;;5057721;28;20297;-65